createdAt,value
2022-12-17T00:00:01.668Z,14.07
2022-12-17T00:02:47.506Z,10.05
2022-12-17T00:05:33.815Z,24.73
2022-12-17T00:08:20.816Z,11.25
2022-12-17T00:11:06.491Z,17.23
2022-12-17T00:13:52.213Z,14.80
2022-12-17T00:16:37.713Z,12.52
2022-12-17T00:19:23.321Z,16.05
2022-12-17T00:22:08.768Z,30.75
2022-12-17T00:24:56.544Z,40.38
2022-12-17T00:27:42.053Z,17.77
2022-12-17T00:30:28.601Z,22.45
2022-12-17T00:33:14.245Z,15.23
2022-12-17T00:36:00.512Z,35.00
2022-12-17T00:38:45.933Z,23.90
2022-12-17T00:41:32.893Z,10.55
2022-12-17T00:44:18.713Z,32.50
2022-12-17T00:47:04.985Z,14.30
2022-12-17T00:49:50.792Z,9.88
2022-12-17T00:52:37.855Z,6.40
2022-12-17T00:55:24.812Z,9.02
2022-12-17T00:58:14.383Z,7.07
2022-12-17T01:01:15.792Z,7.80
2022-12-17T01:04:01.574Z,6.63
2022-12-17T01:06:47.580Z,12.52
2022-12-17T01:09:47.690Z,13.05
2022-12-17T01:12:33.443Z,15.60
2022-12-17T01:15:20.868Z,14.00
2022-12-17T01:18:06.305Z,12.32
2022-12-17T01:20:48.354Z,13.85
2022-12-17T01:23:34.020Z,15.45
2022-12-17T01:26:20.074Z,13.43
2022-12-17T01:29:05.838Z,17.10
2022-12-17T01:31:49.392Z,16.83
2022-12-17T01:34:35.486Z,14.75
2022-12-17T01:37:20.934Z,13.77
2022-12-17T01:40:06.691Z,12.60
2022-12-17T01:43:00.575Z,14.25
2022-12-17T01:45:47.515Z,12.25
2022-12-17T01:48:36.072Z,12.88
2022-12-17T01:51:23.135Z,13.57
2022-12-17T01:54:11.350Z,14.07
2022-12-17T01:57:00.695Z,15.10
2022-12-17T01:59:57.599Z,18.00
2022-12-17T02:02:43.709Z,22.73
2022-12-17T02:05:30.764Z,29.17
2022-12-17T02:08:24.897Z,23.73
2022-12-17T02:11:19.357Z,27.50
2022-12-17T02:14:17.023Z,33.67
2022-12-17T02:17:09.684Z,25.23
2022-12-17T02:20:13.504Z,29.48
2022-12-17T02:23:09.062Z,22.92
2022-12-17T02:26:01.914Z,26.08
2022-12-17T02:28:49.999Z,33.60
2022-12-17T02:31:36.931Z,27.65
2022-12-17T02:34:22.422Z,62.03
2022-12-17T02:37:07.896Z,42.22
2022-12-17T02:39:53.604Z,77.20
2022-12-17T02:42:44.269Z,34.85
2022-12-17T02:45:31.529Z,34.55
2022-12-17T02:48:18.941Z,30.08
2022-12-17T02:51:04.834Z,23.52
2022-12-17T02:53:51.661Z,35.00
2022-12-17T02:56:37.260Z,25.63
2022-12-17T02:59:22.555Z,28.35
2022-12-17T03:02:09.816Z,24.27
2022-12-17T03:04:55.878Z,22.75
2022-12-17T03:07:41.580Z,26.75
2022-12-17T03:10:27.856Z,26.55
2022-12-17T03:13:13.431Z,28.08
2022-12-17T03:15:59.116Z,27.25
2022-12-17T03:18:46.513Z,23.52
2022-12-17T03:21:31.911Z,27.48
2022-12-17T03:24:17.528Z,23.80
2022-12-17T03:27:03.353Z,20.90
2022-12-17T03:30:03.303Z,21.33
2022-12-17T03:32:49.167Z,18.23
2022-12-17T03:35:36.366Z,19.08
2022-12-17T03:38:26.844Z,22.60
2022-12-17T03:41:12.434Z,24.52
2022-12-17T03:43:57.841Z,20.13
2022-12-17T03:46:43.556Z,22.23
2022-12-17T03:49:29.165Z,24.60
2022-12-17T03:52:16.518Z,24.50
2022-12-17T03:55:02.087Z,23.05
2022-12-17T03:57:47.775Z,17.27
2022-12-17T04:00:33.938Z,19.98
2022-12-17T04:03:19.461Z,18.67
2022-12-17T04:06:05.015Z,23.45
2022-12-17T04:08:52.140Z,20.45
2022-12-17T04:11:38.059Z,15.48
2022-12-17T04:14:23.640Z,16.83
2022-12-17T04:17:09.069Z,22.05
2022-12-17T04:19:54.727Z,90.68
2022-12-17T04:22:40.254Z,147.18
2022-12-17T04:25:27.435Z,137.23
2022-12-17T04:28:13.212Z,73.30
2022-12-17T04:30:58.748Z,46.47
2022-12-17T04:33:44.253Z,81.55
2022-12-17T04:36:29.717Z,67.47
2022-12-17T04:39:15.377Z,48.97
2022-12-17T04:42:02.780Z,44.60
2022-12-17T04:44:48.499Z,38.25
2022-12-17T04:47:34.296Z,34.15
2022-12-17T04:50:25.078Z,25.15
2022-12-17T04:53:18.742Z,33.45
2022-12-17T04:56:04.120Z,22.63
2022-12-17T04:58:51.266Z,27.15
2022-12-17T05:01:33.495Z,27.67
2022-12-17T05:04:19.128Z,28.05
2022-12-17T05:07:10.352Z,31.58
2022-12-17T05:09:55.968Z,33.20
2022-12-17T05:12:41.503Z,26.13
2022-12-17T05:15:29.325Z,27.27
2022-12-17T05:18:23.818Z,29.27
2022-12-17T05:21:09.311Z,28.33
2022-12-17T05:23:55.280Z,27.52
2022-12-17T05:26:42.937Z,22.58
2022-12-17T05:29:29.043Z,21.95
2022-12-17T05:32:16.671Z,29.50
2022-12-17T05:35:02.363Z,22.27
2022-12-17T05:37:48.184Z,26.55
2022-12-17T05:40:34.155Z,21.20
2022-12-17T05:43:21.742Z,21.95
2022-12-17T05:46:07.912Z,16.67
2022-12-17T05:48:55.555Z,19.08
2022-12-17T05:51:41.667Z,22.08
2022-12-17T05:54:27.651Z,22.88
2022-12-17T05:57:13.173Z,15.50
2022-12-17T05:59:58.860Z,17.05
2022-12-17T06:02:47.249Z,17.67
2022-12-17T06:05:34.308Z,9.68
2022-12-17T06:08:23.397Z,6.28
2022-12-17T06:11:08.847Z,8.88
2022-12-17T06:13:54.546Z,8.63
2022-12-17T06:16:40.647Z,5.97
2022-12-17T06:19:26.285Z,8.88
2022-12-17T06:22:13.012Z,11.00
2022-12-17T06:24:58.869Z,8.32
2022-12-17T06:27:44.565Z,5.45
2022-12-17T06:30:31.065Z,8.82
2022-12-17T06:33:23.155Z,5.03
2022-12-17T06:36:12.645Z,7.50
2022-12-17T06:39:03.198Z,5.55
2022-12-17T06:41:48.651Z,5.20
2022-12-17T06:44:34.381Z,5.05
2022-12-17T06:47:20.002Z,9.15
2022-12-17T06:50:05.719Z,5.75
2022-12-17T06:52:51.237Z,3.92
2022-12-17T06:55:38.258Z,7.18
2022-12-17T06:58:23.684Z,8.50
2022-12-17T07:01:11.147Z,13.68
2022-12-17T07:03:56.570Z,9.23
2022-12-17T07:06:42.403Z,14.38
2022-12-17T07:09:28.296Z,8.68
2022-12-17T07:12:29.869Z,9.23
2022-12-17T07:15:15.749Z,7.35
2022-12-17T07:18:01.310Z,11.50
2022-12-17T07:20:46.829Z,6.47
2022-12-17T07:23:32.568Z,7.53
2022-12-17T07:26:18.009Z,9.23
2022-12-17T07:29:05.327Z,12.82
2022-12-17T07:31:50.848Z,9.55
2022-12-17T07:34:36.415Z,7.68
2022-12-17T07:37:21.978Z,6.53
2022-12-17T07:40:07.319Z,9.90
2022-12-17T07:42:52.761Z,9.65
2022-12-17T07:45:40.294Z,8.85
2022-12-17T07:48:26.819Z,8.90
2022-12-17T07:51:12.634Z,8.15
2022-12-17T07:53:58.636Z,11.40
2022-12-17T07:56:43.378Z,9.82
2022-12-17T07:59:28.990Z,8.70
2022-12-17T08:02:16.462Z,10.88
2022-12-17T08:05:02.665Z,13.73
2022-12-17T08:07:48.637Z,14.70
2022-12-17T08:10:35.008Z,13.85
2022-12-17T08:13:22.275Z,12.65
2022-12-17T08:16:11.139Z,10.80
2022-12-17T08:18:58.479Z,8.35
2022-12-17T08:21:44.014Z,10.05
2022-12-17T08:24:29.948Z,11.57
2022-12-17T08:27:15.752Z,12.18
2022-12-17T08:30:01.322Z,10.57
2022-12-17T08:32:47.210Z,14.25
2022-12-17T08:35:34.463Z,13.00
2022-12-17T08:38:20.930Z,12.48
2022-12-17T08:41:06.346Z,11.70
2022-12-17T08:43:51.929Z,12.82
2022-12-17T08:46:37.622Z,10.88
2022-12-17T08:49:23.348Z,10.18
2022-12-17T08:52:10.787Z,10.50
2022-12-17T08:54:56.596Z,13.32
2022-12-17T08:57:42.038Z,10.95
2022-12-17T09:00:30.381Z,11.45
2022-12-17T09:03:16.998Z,13.95
2022-12-17T09:06:03.211Z,16.27
2022-12-17T09:08:50.657Z,44.03
2022-12-17T09:11:36.570Z,17.75
2022-12-17T09:14:22.316Z,12.35
2022-12-17T09:17:08.165Z,14.20
2022-12-17T09:19:53.971Z,11.88
2022-12-17T09:22:39.796Z,12.85
2022-12-17T09:25:27.435Z,10.80
2022-12-17T09:28:12.987Z,16.38
2022-12-17T09:30:58.485Z,12.48
2022-12-17T09:33:55.575Z,18.88
2022-12-17T09:36:44.234Z,21.58
2022-12-17T09:39:32.138Z,23.42
2022-12-17T09:42:44.390Z,42.67
2022-12-17T09:45:37.320Z,43.15
2022-12-17T09:48:32.634Z,37.83
2022-12-17T09:51:18.753Z,29.13
2022-12-17T09:54:11.941Z,26.38
2022-12-17T09:57:01.148Z,27.63
2022-12-17T09:59:52.772Z,28.52
2022-12-17T10:02:43.197Z,31.20
2022-12-17T10:05:34.008Z,27.75
2022-12-17T10:08:23.114Z,27.92
2022-12-17T10:11:08.560Z,25.30
2022-12-17T10:13:54.236Z,28.15
2022-12-17T10:16:45.216Z,27.35
2022-12-17T10:19:34.588Z,34.63
2022-12-17T10:22:31.574Z,27.90
2022-12-17T10:25:20.795Z,34.00
2022-12-17T10:28:06.331Z,29.92
2022-12-17T10:30:52.096Z,27.70
2022-12-17T10:33:40.405Z,29.63
2022-12-17T10:36:39.507Z,31.83
2022-12-17T10:39:31.500Z,30.38
2022-12-17T10:42:17.117Z,27.30
2022-12-17T10:45:02.566Z,29.00
2022-12-17T10:47:48.204Z,30.55
2022-12-17T10:50:36.921Z,31.05
2022-12-17T10:53:34.482Z,25.48
2022-12-17T10:56:20.880Z,24.15
2022-12-17T10:59:12.226Z,23.75
2022-12-17T11:01:59.356Z,22.27
2022-12-17T11:04:47.452Z,25.38
2022-12-17T11:07:40.674Z,18.15
2022-12-17T11:10:34.556Z,13.50
2022-12-17T11:13:26.393Z,16.90
2022-12-17T11:16:14.657Z,18.55
2022-12-17T11:19:15.678Z,14.70
2022-12-17T11:22:12.239Z,15.82
2022-12-17T11:25:03.712Z,13.70
2022-12-17T11:27:55.791Z,9.30
2022-12-17T11:30:41.884Z,7.68
2022-12-17T11:33:35.683Z,6.82
2022-12-17T11:36:36.806Z,4.95
2022-12-17T11:39:29.943Z,6.38
2022-12-17T11:42:23.446Z,4.28
2022-12-17T11:45:23.580Z,3.05
2022-12-17T11:48:17.220Z,5.65
2022-12-17T11:51:08.707Z,2.33
2022-12-17T11:54:06.164Z,1.73
2022-12-17T11:56:56.853Z,1.25
2022-12-17T11:59:52.923Z,3.72
2022-12-17T12:03:03.908Z,2.33
2022-12-17T12:06:02.591Z,1.73
2022-12-17T12:08:50.369Z,1.77
2022-12-17T12:11:49.033Z,2.67
2022-12-17T12:14:47.516Z,4.72
2022-12-17T12:17:49.575Z,4.28
2022-12-17T12:20:52.870Z,4.38
2022-12-17T12:23:48.268Z,2.08
2022-12-17T12:26:36.549Z,3.55
2022-12-17T12:29:28.972Z,4.05
2022-12-17T12:32:22.068Z,4.55
2022-12-17T12:35:10.872Z,3.30
2022-12-17T12:37:56.824Z,5.97
2022-12-17T12:40:50.618Z,5.93
2022-12-17T12:43:41.023Z,4.72
2022-12-17T12:46:35.115Z,5.53
2022-12-17T12:49:37.213Z,5.70
2022-12-17T12:52:24.786Z,3.35
2022-12-17T12:55:12.068Z,2.28
2022-12-17T12:58:01.097Z,1.83
2022-12-17T13:00:55.831Z,2.22
2022-12-17T13:03:47.850Z,5.18
2022-12-17T13:06:37.887Z,5.65
2022-12-17T13:09:20.946Z,5.13
2022-12-17T13:11:51.729Z,3.80
2022-12-17T13:14:24.015Z,2.17
2022-12-17T13:16:56.490Z,2.42
2022-12-17T13:19:37.147Z,4.32
2022-12-17T13:22:13.352Z,3.25
2022-12-17T13:24:44.271Z,3.47
2022-12-17T13:27:30.919Z,4.00
2022-12-17T13:30:00.953Z,6.60
2022-12-17T13:32:34.382Z,4.93
2022-12-17T13:35:19.187Z,9.80
2022-12-17T13:37:57.303Z,13.52
2022-12-17T13:40:40.849Z,13.23
2022-12-17T13:43:18.009Z,12.30
2022-12-17T13:45:46.920Z,6.70
2022-12-17T13:48:22.737Z,7.00
2022-12-17T13:50:59.880Z,8.10
2022-12-17T13:53:29.799Z,5.80
2022-12-17T13:55:59.791Z,3.35
2022-12-17T13:58:30.631Z,4.15
2022-12-17T14:01:09.700Z,7.80
2022-12-17T14:06:31.109Z,4.28
2022-12-17T14:09:00.364Z,5.30
2022-12-17T14:11:49.012Z,4.53
2022-12-17T14:14:32.292Z,5.22
2022-12-17T14:17:01.094Z,7.18
2022-12-17T14:19:31.040Z,10.52
2022-12-17T14:21:59.842Z,7.70
2022-12-17T14:24:29.805Z,6.25
2022-12-17T14:27:01.151Z,8.82
2022-12-17T14:29:31.331Z,6.18
2022-12-17T14:32:01.686Z,5.32
2022-12-17T14:34:31.150Z,5.50
2022-12-17T14:37:01.670Z,7.50
2022-12-17T14:39:31.937Z,7.85
2022-12-17T14:42:30.021Z,3.80
2022-12-17T14:45:00.805Z,5.00
2022-12-17T14:47:31.065Z,6.53
2022-12-17T14:50:06.257Z,7.45
2022-12-17T14:52:43.458Z,8.93
2022-12-17T14:55:33.326Z,6.53
2022-12-17T14:58:18.717Z,9.05
2022-12-17T15:00:50.860Z,8.02
2022-12-17T15:03:22.604Z,8.85
2022-12-17T15:05:54.834Z,6.88
2022-12-17T15:08:23.837Z,8.68
2022-12-17T15:10:52.387Z,11.57
2022-12-17T15:13:22.267Z,7.68
2022-12-17T15:15:50.593Z,9.43
2022-12-17T15:18:18.990Z,8.45
2022-12-17T15:20:47.400Z,7.32
2022-12-17T15:23:18.085Z,6.68
2022-12-17T15:25:47.308Z,6.13
2022-12-17T15:28:19.491Z,7.45
2022-12-17T15:33:19.735Z,11.18
2022-12-17T15:35:48.275Z,9.20
2022-12-17T15:38:16.651Z,7.03
2022-12-17T15:40:44.973Z,6.40
2022-12-17T15:43:13.156Z,8.57
2022-12-17T15:45:42.865Z,7.18
2022-12-17T15:48:13.984Z,8.52
2022-12-17T15:50:42.426Z,10.10
2022-12-17T15:53:11.730Z,7.88
2022-12-17T15:55:40.804Z,9.48
2022-12-17T15:58:11.511Z,8.07
2022-12-17T16:00:40.041Z,7.78
2022-12-17T16:03:08.655Z,9.60
2022-12-17T16:05:38.758Z,12.02
2022-12-17T16:08:07.892Z,7.75
2022-12-17T16:10:36.498Z,7.68
2022-12-17T16:13:05.448Z,8.65
2022-12-17T16:15:33.936Z,8.15
2022-12-17T16:18:02.428Z,8.02
2022-12-17T16:20:30.852Z,9.85
2022-12-17T16:23:01.297Z,8.40
2022-12-17T16:25:30.123Z,11.95
2022-12-17T16:27:58.578Z,8.82
2022-12-17T16:30:27.001Z,9.73
2022-12-17T16:32:55.430Z,7.38
2022-12-17T16:35:25.122Z,8.98
2022-12-17T16:37:53.702Z,10.07
2022-12-17T16:40:23.545Z,10.93
2022-12-17T16:42:51.952Z,10.85
2022-12-17T16:45:20.414Z,11.00
2022-12-17T16:47:48.934Z,13.25
2022-12-17T16:50:17.504Z,14.73
2022-12-17T16:52:46.287Z,18.60
2022-12-17T16:55:14.617Z,21.30
2022-12-17T16:57:44.599Z,21.27
2022-12-17T17:00:13.933Z,22.10
2022-12-17T17:02:42.407Z,20.88
2022-12-17T17:05:11.257Z,18.90
2022-12-17T17:07:40.137Z,18.15
2022-12-17T17:10:09.122Z,25.92
2022-12-17T17:12:37.471Z,21.00
2022-12-17T17:15:08.701Z,17.17
2022-12-17T17:17:53.880Z,16.27
2022-12-17T17:20:24.693Z,12.55
2022-12-17T17:22:53.004Z,14.48
2022-12-17T17:25:21.458Z,19.20
2022-12-17T17:27:49.803Z,18.92
2022-12-17T17:30:19.773Z,13.05
2022-12-17T17:32:48.245Z,12.90
2022-12-17T17:35:16.861Z,15.55
2022-12-17T17:37:45.172Z,18.50
2022-12-17T17:40:14.880Z,15.15
2022-12-17T17:42:46.145Z,17.85
2022-12-17T17:45:20.000Z,17.65
2022-12-17T17:47:48.676Z,18.63
2022-12-17T17:50:17.021Z,23.23
2022-12-17T17:52:45.459Z,23.50
2022-12-17T17:55:13.777Z,53.45
2022-12-17T17:57:42.091Z,49.55
2022-12-17T18:00:11.909Z,37.50
2022-12-17T18:02:42.278Z,30.60
2022-12-17T18:05:11.411Z,28.80
2022-12-17T18:07:40.048Z,25.58
2022-12-17T18:10:09.605Z,31.13
2022-12-17T18:12:55.580Z,29.70
2022-12-17T18:15:23.837Z,29.20
2022-12-17T18:17:53.712Z,25.65
2022-12-17T18:20:22.068Z,31.60
2022-12-17T18:22:50.684Z,27.75
2022-12-17T18:25:19.414Z,35.28
2022-12-17T18:27:47.969Z,37.88
2022-12-17T18:30:17.234Z,62.20
2022-12-17T18:32:45.720Z,59.47
2022-12-17T18:35:15.496Z,122.20
2022-12-17T18:37:43.929Z,66.28
2022-12-17T18:40:13.003Z,36.08
2022-12-17T18:42:58.893Z,62.38
2022-12-17T18:45:27.345Z,46.05
2022-12-17T18:47:55.868Z,35.70
2022-12-17T18:50:25.676Z,32.05
2022-12-17T18:52:54.050Z,35.72
2022-12-17T18:55:22.403Z,30.48
2022-12-17T18:57:50.751Z,36.53
2022-12-17T19:00:19.456Z,35.92
2022-12-17T19:02:47.903Z,30.65
2022-12-17T19:05:16.710Z,29.25
2022-12-17T19:07:46.514Z,27.48
2022-12-17T19:10:14.862Z,31.55
2022-12-17T19:12:43.249Z,19.67
2022-12-17T19:15:12.113Z,20.88
2022-12-17T19:17:40.485Z,27.42
2022-12-17T19:20:10.129Z,28.98
2022-12-17T19:22:38.556Z,24.08
2022-12-17T19:25:08.967Z,31.13
2022-12-17T19:27:37.296Z,29.95
2022-12-17T19:30:06.750Z,28.83
2022-12-17T19:32:35.156Z,32.28
2022-12-17T19:35:03.635Z,28.40
2022-12-17T19:37:31.993Z,33.03
2022-12-17T19:40:00.367Z,34.60
2022-12-17T19:42:36.707Z,28.05
2022-12-17T19:45:06.350Z,22.40
2022-12-17T19:47:34.809Z,25.52
2022-12-17T19:50:03.202Z,37.05
2022-12-17T19:52:31.705Z,27.77
2022-12-17T19:55:00.039Z,27.00
2022-12-17T19:57:29.896Z,34.30
2022-12-17T19:59:58.253Z,40.08
2022-12-17T20:02:32.328Z,37.45
2022-12-17T20:05:01.243Z,39.72
2022-12-17T20:07:29.886Z,40.28
2022-12-17T20:09:58.173Z,34.92
2022-12-17T20:12:26.674Z,44.95
2022-12-17T20:14:56.711Z,34.67
2022-12-17T20:17:26.193Z,34.35
2022-12-17T20:19:57.941Z,29.35
2022-12-17T20:22:26.432Z,31.92
2022-12-17T20:24:54.755Z,24.90
2022-12-17T20:27:23.613Z,30.65
2022-12-17T20:29:51.921Z,30.13
2022-12-17T20:32:22.047Z,38.78
2022-12-17T20:34:51.699Z,37.25
2022-12-17T20:37:20.492Z,27.30
2022-12-17T20:39:49.190Z,23.88
2022-12-17T20:42:18.400Z,20.13
2022-12-17T20:44:53.102Z,22.90
2022-12-17T20:47:23.308Z,20.38
2022-12-17T20:49:51.626Z,17.02
2022-12-17T20:52:19.930Z,18.15
2022-12-17T20:54:49.495Z,19.25
2022-12-17T20:57:17.988Z,20.30
2022-12-17T20:59:46.649Z,20.05
2022-12-17T21:02:15.021Z,18.42
2022-12-17T21:04:44.969Z,19.25
2022-12-17T21:07:13.605Z,20.98
2022-12-17T21:09:42.179Z,18.50
2022-12-17T21:12:12.525Z,19.85
2022-12-17T21:14:40.934Z,16.95
2022-12-17T21:17:09.811Z,19.15
2022-12-17T21:19:38.435Z,28.50
2022-12-17T21:22:08.903Z,16.20
2022-12-17T21:24:39.045Z,19.33
2022-12-17T21:27:14.342Z,19.40
2022-12-17T21:29:43.238Z,19.30
2022-12-17T21:32:11.641Z,16.48
2022-12-17T21:34:40.076Z,17.35
2022-12-17T21:37:11.365Z,18.23
2022-12-17T21:39:40.016Z,16.77
2022-12-17T21:42:25.566Z,17.02
2022-12-17T21:44:53.945Z,15.35
2022-12-17T21:47:22.432Z,18.20
2022-12-17T21:49:51.081Z,16.50
2022-12-17T21:52:20.816Z,13.55
2022-12-17T21:54:49.498Z,16.98
2022-12-17T21:57:18.299Z,16.52
2022-12-17T21:59:46.657Z,17.08
2022-12-17T22:02:15.215Z,15.60
2022-12-17T22:04:43.659Z,16.50
2022-12-17T22:07:20.402Z,18.02
2022-12-17T22:10:11.732Z,14.15
2022-12-17T22:13:07.366Z,14.05
2022-12-17T22:15:47.216Z,14.95
2022-12-17T22:18:16.960Z,14.45
2022-12-17T22:20:45.308Z,14.10
2022-12-17T22:23:13.732Z,12.60
2022-12-17T22:25:43.878Z,11.43
2022-12-17T22:28:12.469Z,18.23
2022-12-17T22:30:59.231Z,11.85
2022-12-17T22:33:58.177Z,16.38
2022-12-17T22:38:48.929Z,14.43
2022-12-17T22:43:00.096Z,14.05
2022-12-17T22:44:40.754Z,13.13
2022-12-17T22:45:09.988Z,14.57
2022-12-17T22:47:39.664Z,14.20
2022-12-17T22:50:08.557Z,15.35
2022-12-17T22:52:37.519Z,16.15
2022-12-17T22:55:07.555Z,15.88
2022-12-17T22:57:38.625Z,15.40
2022-12-17T23:00:14.294Z,13.70
2022-12-17T23:02:42.754Z,16.50
2022-12-17T23:05:11.373Z,16.92
2022-12-17T23:07:40.094Z,15.50
2022-12-17T23:10:09.002Z,14.00
2022-12-17T23:12:55.141Z,14.38
2022-12-17T23:15:27.590Z,10.00
2022-12-17T23:17:57.890Z,11.48
2022-12-17T23:20:27.552Z,12.52
2022-12-17T23:22:56.064Z,14.60
2022-12-17T23:25:24.924Z,18.25
2022-12-17T23:27:55.705Z,18.05
2022-12-17T23:30:24.232Z,15.48
2022-12-17T23:32:52.825Z,17.40
2022-12-17T23:35:21.914Z,13.05
2022-12-17T23:37:50.864Z,13.00
2022-12-17T23:40:19.381Z,15.57
2022-12-17T23:42:48.078Z,13.30
2022-12-17T23:45:17.917Z,13.23
2022-12-17T23:47:46.226Z,14.10
2022-12-17T23:50:14.612Z,13.40
2022-12-17T23:52:43.097Z,12.65
2022-12-17T23:55:12.238Z,12.45
2022-12-17T23:57:40.708Z,15.40
